Time;durP1;ratioP1;P1;durP2;ratioP2;P2;SDS_P1;SDS_P2;PMS_P1;PMS_P2;Temp;Humidity;BMP_temperature;BMP_pressure;BME280_temperature;BME280_humidity;BME280_pressure;Samples;Min_cycle;Max_cycle;Signal;HPM_P1;HPM_P2
2023/04/18 00:00:38;;;;;;;;;;;;;;;15.74;44.25;101586.94;4920597;28;98440;-69
2023/04/18 00:03:04;;;;;;;;;;;;;;;15.74;44.43;101590.47;4915523;28;100175;-69
2023/04/18 00:05:30;;;;;;;;;;;;;;;15.74;44.40;101592.38;4924162;28;99353;-70
2023/04/18 00:07:57;;;;;;;;;;;;;;;15.72;44.33;101589.94;4920270;28;98171;-69
2023/04/18 00:10:23;;;;;;;;;;;;;;;15.71;44.27;101591.00;4920780;28;99357;-69
2023/04/18 00:12:50;;;;;;;;;;;;;;;15.71;44.27;101583.66;4927031;28;97890;-70
2023/04/18 00:15:17;;;;;;;;;;;;;;;15.71;44.37;101591.81;4926575;28;97934;-69
2023/04/18 00:17:44;;;;;;;;;;;;;;;15.70;44.27;101598.34;4925047;28;98009;-69
2023/04/18 00:20:11;;;;;;;;;;;;;;;15.70;44.39;101594.81;4924608;28;98366;-69
2023/04/18 00:22:41;;;;;;;;;;;;;;;15.68;44.40;101592.38;4955172;28;98400;-69
2023/04/18 00:25:08;;;;;;;;;;;;;;;15.69;44.26;101590.47;4924046;28;97929;-69
2023/04/18 00:27:35;;;;;;;;;;;;;;;15.68;44.40;101595.09;4941538;28;98080;-69
2023/04/18 00:30:01;;;;;;;;;;;;;;;15.66;44.39;101589.13;4942146;28;98500;-69
2023/04/18 00:32:27;;;;;;;;;;;;;;;15.66;44.36;101585.59;4928548;28;98090;-69
2023/04/18 00:34:53;;;;;;;;;;;;;;;15.67;44.50;101589.94;4940747;28;98482;-69
2023/04/18 00:37:19;;;;;;;;;;;;;;;15.66;44.31;101597.28;4956682;28;98018;-69
2023/04/18 00:39:45;;;;;;;;;;;;;;;15.65;44.34;101587.50;4954197;28;98370;-69
2023/04/18 00:42:12;;;;;;;;;;;;;;;15.63;44.33;101588.81;4940250;28;98123;-69
2023/04/18 00:44:38;;;;;;;;;;;;;;;15.64;44.49;101591.28;4924620;28;98403;-69
2023/04/18 00:47:05;;;;;;;;;;;;;;;15.63;44.60;101594.25;4927874;28;98139;-69
2023/04/18 00:49:32;;;;;;;;;;;;;;;15.63;44.32;101586.09;4943133;28;98256;-69
2023/04/18 00:51:58;;;;;;;;;;;;;;;15.62;44.51;101587.19;4941421;28;98845;-69
2023/04/18 00:54:24;;;;;;;;;;;;;;;15.63;44.48;101591.53;4919064;28;98841;-69
2023/04/18 00:56:51;;;;;;;;;;;;;;;15.61;44.50;101591.00;4942198;28;98065;-69
2023/04/18 00:59:17;;;;;;;;;;;;;;;15.59;44.31;101583.13;4953633;28;100058;-69
2023/04/18 01:01:43;;;;;;;;;;;;;;;15.59;44.33;101588.56;4923446;28;98180;-69
2023/04/18 01:04:10;;;;;;;;;;;;;;;15.59;44.54;101595.88;4954896;28;97991;-69
2023/04/18 01:06:36;;;;;;;;;;;;;;;15.58;44.28;101592.38;4926786;28;98083;-69
2023/04/18 01:09:04;;;;;;;;;;;;;;;15.57;44.61;101601.63;4936004;28;98517;-69
2023/04/18 01:11:30;;;;;;;;;;;;;;;15.57;44.41;101600.81;4951368;27;99572;-69
2023/04/18 01:14:04;;;;;;;;;;;;;;;15.55;44.48;101601.06;4930635;28;100860;-69
2023/04/18 01:16:35;;;;;;;;;;;;;;;15.54;44.42;101594.00;4956053;28;98660;-69
2023/04/18 01:19:02;;;;;;;;;;;;;;;15.55;44.53;101592.09;4942677;28;100358;-69
2023/04/18 01:21:30;;;;;;;;;;;;;;;15.53;44.52;101589.66;4926355;28;97793;-69
2023/04/18 01:24:06;;;;;;;;;;;;;;;15.53;44.31;101594.28;4925262;28;98527;-69
2023/04/18 01:26:32;;;;;;;;;;;;;;;15.52;44.46;101598.88;4934088;28;98721;-69
2023/04/18 01:28:58;;;;;;;;;;;;;;;15.51;44.53;101599.16;4925875;28;99189;-69
2023/04/18 01:31:24;;;;;;;;;;;;;;;15.51;44.51;101597.25;4940196;28;98291;-69
2023/04/18 01:33:50;;;;;;;;;;;;;;;15.49;44.35;101602.16;4925430;28;98156;-69
2023/04/18 01:36:16;;;;;;;;;;;;;;;15.49;44.57;101598.63;4957693;28;98074;-69
2023/04/18 01:38:43;;;;;;;;;;;;;;;15.47;44.34;101596.19;4955750;28;102906;-69
2023/04/18 01:41:09;;;;;;;;;;;;;;;15.45;44.48;101591.03;4954058;28;98196;-69
2023/04/18 01:43:35;;;;;;;;;;;;;;;15.44;44.13;101597.56;4941764;28;99579;-69
2023/04/18 01:46:02;;;;;;;;;;;;;;;15.44;44.42;101600.28;4938849;28;97949;-69
2023/04/18 01:48:28;;;;;;;;;;;;;;;15.43;44.63;101592.38;4926775;28;98282;-69
2023/04/18 01:50:54;;;;;;;;;;;;;;;15.42;44.47;101594.28;4920695;28;98240;-69
2023/04/18 01:53:20;;;;;;;;;;;;;;;15.42;44.44;101596.19;4925329;28;98432;-69
2023/04/18 01:55:49;;;;;;;;;;;;;;;15.39;44.56;101592.09;4920322;28;98100;-69
2023/04/18 01:58:17;;;;;;;;;;;;;;;15.38;44.41;101590.47;4940374;28;98581;-69
2023/04/18 02:00:43;;;;;;;;;;;;;;;15.38;44.41;101592.38;4941264;28;98157;-69
2023/04/18 02:03:10;;;;;;;;;;;;;;;15.36;44.55;101589.91;4923809;28;98240;-69
2023/04/18 02:05:36;;;;;;;;;;;;;;;15.36;44.38;101583.69;4942891;28;98314;-69
2023/04/18 02:08:03;;;;;;;;;;;;;;;15.35;44.27;101588.31;4924394;28;99731;-69
2023/04/18 02:10:29;;;;;;;;;;;;;;;15.33;44.52;101585.06;4941438;28;98029;-69
2023/04/18 02:12:55;;;;;;;;;;;;;;;15.33;44.58;101586.97;4922971;28;98004;-69
2023/04/18 02:15:22;;;;;;;;;;;;;;;15.32;44.53;101588.84;4941436;28;112650;-69
2023/04/18 02:17:49;;;;;;;;;;;;;;;15.32;44.43;101599.69;4940323;28;100071;-69
2023/04/18 02:20:15;;;;;;;;;;;;;;;15.30;44.31;101592.94;4920493;28;98114;-69
2023/04/18 02:22:42;;;;;;;;;;;;;;;15.30;44.69;101590.22;4941222;28;98031;-69
2023/04/18 02:25:09;;;;;;;;;;;;;;;15.30;44.53;101591.03;4950871;28;98378;-69
2023/04/18 02:27:35;;;;;;;;;;;;;;;15.29;44.79;101594.00;4920176;28;98381;-69
2023/04/18 02:30:02;;;;;;;;;;;;;;;15.29;44.61;101594.00;4952625;28;99000;-69
2023/04/18 02:32:28;;;;;;;;;;;;;;;15.27;44.38;101590.75;4918279;28;98040;-69
2023/04/18 02:34:54;;;;;;;;;;;;;;;15.27;44.44;101596.19;4918962;28;98394;-69
2023/04/18 02:37:21;;;;;;;;;;;;;;;15.27;44.47;101593.47;4924878;28;97958;-68
2023/04/18 02:39:47;;;;;;;;;;;;;;;15.26;44.50;101594.56;4899549;28;99107;-69
2023/04/18 02:42:14;;;;;;;;;;;;;;;15.24;44.38;101600.25;4915994;28;98218;-69
2023/04/18 02:44:40;;;;;;;;;;;;;;;15.23;44.47;101591.28;4938084;28;98153;-69
2023/04/18 02:47:06;;;;;;;;;;;;;;;15.23;44.35;101590.47;4922641;28;100914;-69
2023/04/18 02:49:32;;;;;;;;;;;;;;;15.22;44.50;101592.38;4923994;28;98178;-69
2023/04/18 02:51:59;;;;;;;;;;;;;;;15.21;44.36;101593.47;4955269;28;98458;-69
2023/04/18 02:54:25;;;;;;;;;;;;;;;15.21;44.75;101592.66;4924121;28;98506;-69
2023/04/18 02:56:53;;;;;;;;;;;;;;;15.20;44.16;101589.09;4938360;28;98474;-69
2023/04/18 02:59:19;;;;;;;;;;;;;;;15.20;44.52;101585.56;4948918;28;98152;-69
2023/04/18 03:01:45;;;;;;;;;;;;;;;15.19;44.31;101592.09;4923399;28;98050;-69
2023/04/18 03:04:11;;;;;;;;;;;;;;;15.18;44.60;101593.19;4939813;28;98531;-69
2023/04/18 03:06:38;;;;;;;;;;;;;;;15.16;44.38;101593.44;4918509;28;98394;-69
2023/04/18 03:09:05;;;;;;;;;;;;;;;15.17;44.67;101602.44;4939376;28;98766;-69
2023/04/18 03:11:31;;;;;;;;;;;;;;;15.15;44.49;101594.53;4952079;27;98485;-69
2023/04/18 03:13:58;;;;;;;;;;;;;;;15.15;44.37;101596.44;4922840;28;98403;-68
2023/04/18 03:16:24;;;;;;;;;;;;;;;15.14;44.64;101602.97;4939691;28;98073;-69
2023/04/18 03:18:51;;;;;;;;;;;;;;;15.13;44.49;101601.31;4920461;28;98269;-69
2023/04/18 03:21:17;;;;;;;;;;;;;;;15.13;44.36;101598.59;4923354;28;98771;-69
2023/04/18 03:23:44;;;;;;;;;;;;;;;15.11;44.41;101598.88;4937073;28;101468;-69
2023/04/18 03:26:12;;;;;;;;;;;;;;;15.11;44.48;101589.94;4922748;28;98071;-69
2023/04/18 03:28:38;;;;;;;;;;;;;;;15.10;44.30;101597.25;4931717;28;99525;-68
2023/04/18 03:31:04;;;;;;;;;;;;;;;15.10;44.30;101599.97;4932806;28;98558;-69
2023/04/18 03:33:31;;;;;;;;;;;;;;;15.09;44.56;101595.63;4922971;28;97956;-69
2023/04/18 03:35:58;;;;;;;;;;;;;;;15.09;44.57;101592.94;4921877;28;98312;-69
2023/04/18 03:38:24;;;;;;;;;;;;;;;15.09;44.46;101594.81;4920299;28;99475;-69
2023/04/18 03:40:51;;;;;;;;;;;;;;;15.07;44.69;101597.78;4919280;28;98226;-69
2023/04/18 03:43:21;;;;;;;;;;;;;;;15.07;44.39;101591.56;4924846;28;98080;-69
2023/04/18 03:45:48;;;;;;;;;;;;;;;15.06;44.36;101595.38;4942747;28;98373;-69
2023/04/18 03:48:15;;;;;;;;;;;;;;;15.05;44.62;101599.13;4927115;28;98877;-69
2023/04/18 03:50:41;;;;;;;;;;;;;;;15.04;44.39;101605.66;4935476;28;98120;-69
2023/04/18 03:53:07;;;;;;;;;;;;;;;15.04;44.46;101611.09;4919423;28;98183;-68
2023/04/18 03:55:34;;;;;;;;;;;;;;;15.03;44.43;101612.19;4942412;28;100810;-68
2023/04/18 03:58:00;;;;;;;;;;;;;;;15.03;44.63;101612.19;4921160;28;99995;-68
2023/04/18 04:00:26;;;;;;;;;;;;;;;15.02;44.35;101607.84;4944815;28;98834;-68
2023/04/18 04:02:53;;;;;;;;;;;;;;;15.01;44.34;101608.91;4923688;28;98590;-68
2023/04/18 04:05:19;;;;;;;;;;;;;;;15.01;44.29;101617.06;4952912;28;100234;-68
2023/04/18 04:07:46;;;;;;;;;;;;;;;14.98;44.26;101619.25;4937824;28;98301;-68
2023/04/18 04:10:12;;;;;;;;;;;;;;;14.98;44.66;101607.56;4936110;28;99699;-68
2023/04/18 04:12:38;;;;;;;;;;;;;;;14.97;44.58;101606.75;4955394;28;97837;-68
2023/04/18 04:15:05;;;;;;;;;;;;;;;14.97;44.63;101609.47;4926330;28;98214;-68
2023/04/18 04:17:32;;;;;;;;;;;;;;;14.97;44.64;101609.47;4926418;28;100127;-69
2023/04/18 04:19:58;;;;;;;;;;;;;;;14.96;44.55;101626.00;4943064;28;98194;-68
2023/04/18 04:22:24;;;;;;;;;;;;;;;14.95;44.37;101627.91;4928358;28;98727;-68
2023/04/18 04:24:50;;;;;;;;;;;;;;;14.95;44.50;101617.06;4936238;28;98231;-69
2023/04/18 04:27:17;;;;;;;;;;;;;;;14.94;44.44;101617.34;4918740;28;98317;-68
2023/04/18 04:29:43;;;;;;;;;;;;;;;14.94;44.37;101628.19;4918586;28;98828;-69
2023/04/18 04:32:11;;;;;;;;;;;;;;;14.92;44.56;101625.72;4927586;28;98076;-69
2023/04/18 04:34:40;;;;;;;;;;;;;;;14.91;44.31;101632.25;4921487;28;98322;-69
2023/04/18 04:37:07;;;;;;;;;;;;;;;14.91;44.52;101637.69;4957613;28;99714;-68
2023/04/18 04:39:33;;;;;;;;;;;;;;;14.91;44.49;101634.97;4925294;28;98627;-69
2023/04/18 04:42:02;;;;;;;;;;;;;;;14.90;44.21;101633.34;4923401;28;98328;-68
2023/04/18 04:44:30;;;;;;;;;;;;;;;14.92;44.59;101639.31;4940679;28;98175;-68
2023/04/18 04:46:56;;;;;;;;;;;;;;;14.91;44.23;101634.16;4937694;28;98679;-68
2023/04/18 04:49:22;;;;;;;;;;;;;;;14.91;44.60;101642.28;4942196;28;98318;-68
2023/04/18 04:51:48;;;;;;;;;;;;;;;14.90;44.34;101641.50;4935552;28;98187;-68
2023/04/18 04:54:14;;;;;;;;;;;;;;;14.90;44.68;101637.97;4919908;28;98122;-68
2023/04/18 04:56:41;;;;;;;;;;;;;;;14.91;44.18;101642.28;4937927;28;98115;-68
2023/04/18 04:59:07;;;;;;;;;;;;;;;14.91;44.27;101645.00;4955790;28;98783;-68
2023/04/18 05:01:33;;;;;;;;;;;;;;;14.90;44.35;101651.53;4922372;28;98201;-68
2023/04/18 05:03:59;;;;;;;;;;;;;;;14.89;44.47;101650.69;4917818;28;98625;-68
2023/04/18 05:06:26;;;;;;;;;;;;;;;14.89;44.30;101642.53;4950355;28;98467;-68
2023/04/18 05:08:53;;;;;;;;;;;;;;;14.88;44.43;101638.22;4949597;28;98474;-68
2023/04/18 05:11:19;;;;;;;;;;;;;;;14.88;44.34;101646.34;4954903;28;98339;-67
2023/04/18 05:13:46;;;;;;;;;;;;;;;14.89;44.55;101649.88;4937792;28;98613;-68
2023/04/18 05:16:12;;;;;;;;;;;;;;;14.88;44.58;101653.69;4939968;28;99582;-69
2023/04/18 05:18:40;;;;;;;;;;;;;;;14.87;44.25;101650.16;4923102;28;98180;-68
2023/04/18 05:21:06;;;;;;;;;;;;;;;14.88;44.22;101649.06;4938769;28;98222;-68
2023/04/18 05:23:35;;;;;;;;;;;;;;;14.88;44.59;101650.97;4917385;28;98015;-69
2023/04/18 05:26:02;;;;;;;;;;;;;;;14.88;44.49;101659.94;4937755;28;98023;-68
2023/04/18 05:28:28;;;;;;;;;;;;;;;14.87;44.40;101655.59;4958433;28;115551;-68
2023/04/18 05:31:00;;;;;;;;;;;;;;;14.89;44.21;101658.03;4922411;28;97978;-68
2023/04/18 05:33:27;;;;;;;;;;;;;;;14.87;44.43;101661.00;4927608;28;98249;-67
2023/04/18 05:35:54;;;;;;;;;;;;;;;14.87;44.42;101652.06;4940928;28;98016;-68
2023/04/18 05:38:20;;;;;;;;;;;;;;;14.87;44.55;101655.59;4939048;28;98678;-68
2023/04/18 05:40:46;;;;;;;;;;;;;;;14.89;44.52;101658.03;4922853;28;98106;-69
2023/04/18 05:43:13;;;;;;;;;;;;;;;14.89;44.32;101666.16;4952684;28;97948;-68
2023/04/18 05:45:39;;;;;;;;;;;;;;;14.90;44.53;101665.91;4941507;28;98148;-69
2023/04/18 05:48:05;;;;;;;;;;;;;;;14.91;44.63;101664.84;4952704;28;99248;-69
2023/04/18 05:50:32;;;;;;;;;;;;;;;14.97;44.11;101663.78;4936346;28;98934;-68
2023/04/18 05:52:58;;;;;;;;;;;;;;;15.12;44.09;101662.97;4938619;28;98118;-69
2023/04/18 05:55:25;;;;;;;;;;;;;;;15.16;44.11;101666.78;4952132;28;98057;-69
2023/04/18 05:57:51;;;;;;;;;;;;;;;15.17;44.21;101662.19;4923165;28;98137;-68
2023/04/18 06:00:17;;;;;;;;;;;;;;;15.25;44.03;101663.53;4917432;28;99510;-68
2023/04/18 06:02:43;;;;;;;;;;;;;;;15.24;44.25;101668.16;4935349;28;104965;-69
2023/04/18 06:05:11;;;;;;;;;;;;;;;15.22;44.20;101663.00;4951584;28;100068;-69
2023/04/18 06:07:37;;;;;;;;;;;;;;;15.23;44.04;101669.25;4921010;28;98397;-69
2023/04/18 06:10:06;;;;;;;;;;;;;;;15.25;44.36;101666.25;4936158;28;98338;-68
2023/04/18 06:12:33;;;;;;;;;;;;;;;15.28;44.26;101671.94;4925366;28;98087;-68
2023/04/18 06:14:59;;;;;;;;;;;;;;;15.32;44.09;101672.22;4955148;28;98672;-68
2023/04/18 06:17:25;;;;;;;;;;;;;;;15.33;44.15;101680.13;4920820;28;98623;-68
2023/04/18 06:19:51;;;;;;;;;;;;;;;15.32;44.43;101675.75;4952268;28;98861;-68
2023/04/18 06:22:17;;;;;;;;;;;;;;;15.33;44.06;101673.88;4941757;28;97981;-68
2023/04/18 06:24:43;;;;;;;;;;;;;;;15.34;43.93;101679.03;4952287;28;98356;-69
2023/04/18 06:27:10;;;;;;;;;;;;;;;15.36;44.20;101687.72;4918123;28;99070;-69
2023/04/18 06:29:36;;;;;;;;;;;;;;;15.35;44.36;101686.09;4924740;28;98181;-69
2023/04/18 06:32:03;;;;;;;;;;;;;;;15.32;44.63;101683.09;4924544;28;98352;-69
2023/04/18 06:34:29;;;;;;;;;;;;;;;15.34;44.30;101686.38;4925378;28;99810;-68
2023/04/18 06:36:56;;;;;;;;;;;;;;;15.32;44.17;101686.63;4953261;28;98414;-69
2023/04/18 06:39:22;;;;;;;;;;;;;;;15.32;44.20;101685.81;4926439;28;98378;-68
2023/04/18 06:41:49;;;;;;;;;;;;;;;15.32;44.36;101683.91;4923257;28;99641;-68
2023/04/18 06:44:15;;;;;;;;;;;;;;;15.31;44.49;101698.59;4923118;28;98031;-68
2023/04/18 06:46:41;;;;;;;;;;;;;;;15.32;44.05;101694.78;4924235;28;98878;-69
2023/04/18 06:49:08;;;;;;;;;;;;;;;15.40;44.00;101693.44;4955696;28;98077;-68
2023/04/18 06:51:33;;;;;;;;;;;;;;;15.44;44.04;101689.94;4924514;28;98114;-69
2023/04/18 06:54:01;;;;;;;;;;;;;;;15.50;44.11;101693.44;4932951;28;129177;-68
2023/04/18 06:56:28;;;;;;;;;;;;;;;15.53;43.99;101698.34;4940773;28;98012;-68
2023/04/18 06:58:54;;;;;;;;;;;;;;;15.57;44.01;101693.19;4950646;28;98294;-68
2023/04/18 07:01:20;;;;;;;;;;;;;;;15.60;43.96;101692.63;4952124;28;98435;-68
2023/04/18 07:03:46;;;;;;;;;;;;;;;15.64;43.80;101696.44;4939693;28;100527;-68
2023/04/18 07:06:12;;;;;;;;;;;;;;;15.69;43.82;101696.47;4924134;28;98051;-69
2023/04/18 07:08:38;;;;;;;;;;;;;;;15.70;43.67;101689.94;4920685;28;98148;-68
2023/04/18 07:11:06;;;;;;;;;;;;;;;15.75;43.93;101692.66;4952774;28;98010;-68
2023/04/18 07:13:32;;;;;;;;;;;;;;;15.81;43.81;101698.94;4924660;28;98424;-69
2023/04/18 07:15:58;;;;;;;;;;;;;;;15.85;43.97;101703.53;4940085;28;97898;-68
2023/04/18 07:18:24;;;;;;;;;;;;;;;15.90;43.79;101708.16;4934892;28;98133;-68
2023/04/18 07:20:50;;;;;;;;;;;;;;;15.88;43.98;101705.72;4944574;28;98400;-68
2023/04/18 07:23:16;;;;;;;;;;;;;;;15.90;43.97;101700.81;4927668;28;98049;-68
2023/04/18 07:25:43;;;;;;;;;;;;;;;15.94;43.97;101696.47;4924605;28;98329;-69
2023/04/18 07:28:09;;;;;;;;;;;;;;;16.00;43.85;101700.00;4943749;28;97949;-68
2023/04/18 07:30:35;;;;;;;;;;;;;;;16.10;43.64;101699.16;4928297;28;98013;-69
2023/04/18 07:33:02;;;;;;;;;;;;;;;16.29;43.60;101699.41;4954829;28;98056;-69
2023/04/18 07:35:28;;;;;;;;;;;;;;;16.56;43.21;101701.78;4937240;28;98247;-68
2023/04/18 07:37:54;;;;;;;;;;;;;;;16.68;43.20;101694.09;4944160;28;97968;-68
2023/04/18 07:40:21;;;;;;;;;;;;;;;16.75;43.25;101686.47;4952896;28;98261;-69
2023/04/18 07:42:48;;;;;;;;;;;;;;;16.72;43.31;101697.91;4952212;28;97955;-69
2023/04/18 07:45:14;;;;;;;;;;;;;;;16.69;43.49;101698.44;4943775;28;98225;-68
2023/04/18 07:47:40;;;;;;;;;;;;;;;16.72;43.35;101707.97;4928965;28;97867;-68
2023/04/18 07:50:07;;;;;;;;;;;;;;;16.76;43.38;101698.19;4923925;28;99226;-68
2023/04/18 07:52:33;;;;;;;;;;;;;;;16.85;43.22;101699.22;4944106;28;98317;-69
2023/04/18 07:54:59;;;;;;;;;;;;;;;16.87;43.39;101692.41;4921014;28;99740;-69
2023/04/18 07:57:25;;;;;;;;;;;;;;;17.05;43.19;101692.84;4940382;28;98127;-68
2023/04/18 07:59:52;;;;;;;;;;;;;;;17.16;43.06;101702.59;4943748;28;98456;-68
2023/04/18 08:02:20;;;;;;;;;;;;;;;17.21;43.16;101701.75;4937161;28;98112;-68
2023/04/18 08:04:48;;;;;;;;;;;;;;;17.41;42.85;101699.72;4921646;28;98518;-68
2023/04/18 08:07:15;;;;;;;;;;;;;;;17.61;42.67;101687.84;4943319;28;98281;-69
2023/04/18 08:09:41;;;;;;;;;;;;;;;17.64;42.86;101695.47;4927620;28;100192;-69
2023/04/18 08:12:08;;;;;;;;;;;;;;;17.71;42.81;101692.38;4927020;28;97954;-69
2023/04/18 08:14:34;;;;;;;;;;;;;;;17.85;42.83;101698.03;4942695;28;98122;-68
2023/04/18 08:17:00;;;;;;;;;;;;;;;18.02;42.78;101689.41;4946905;28;98149;-69
2023/04/18 08:19:26;;;;;;;;;;;;;;;17.98;42.87;101689.19;4925724;28;97990;-69
2023/04/18 08:21:52;;;;;;;;;;;;;;;18.09;42.76;101687.97;4943930;28;98029;-69
2023/04/18 08:24:19;;;;;;;;;;;;;;;18.22;42.57;101688.41;4955115;28;98206;-69
2023/04/18 08:26:44;;;;;;;;;;;;;;;18.25;42.65;101685.91;4926030;28;98284;-68
2023/04/18 08:29:11;;;;;;;;;;;;;;;18.26;42.66;101692.97;4943225;28;98675;-69
2023/04/18 08:31:39;;;;;;;;;;;;;;;18.31;42.80;101687.50;4926228;28;97992;-69
2023/04/18 08:34:05;;;;;;;;;;;;;;;18.49;42.66;101691.38;4942255;28;98093;-69
2023/04/18 08:36:31;;;;;;;;;;;;;;;18.79;42.42;101694.88;4923405;28;98011;-69
2023/04/18 08:38:57;;;;;;;;;;;;;;;18.84;42.47;101700.25;4936194;28;98263;-69
2023/04/18 08:41:23;;;;;;;;;;;;;;;18.83;42.39;101706.84;4927187;28;97911;-69
2023/04/18 08:43:50;;;;;;;;;;;;;;;18.92;42.52;101704.25;4926753;28;99028;-69
2023/04/18 08:46:16;;;;;;;;;;;;;;;18.96;42.44;101697.91;4942916;28;99642;-70
2023/04/18 08:48:42;;;;;;;;;;;;;;;19.09;42.47;101693.63;4925689;28;98119;-69
2023/04/18 08:51:09;;;;;;;;;;;;;;;19.25;42.40;101695.00;4926915;28;100219;-69
2023/04/18 08:53:35;;;;;;;;;;;;;;;19.35;42.37;101694.88;4956461;28;99804;-69
2023/04/18 08:56:04;;;;;;;;;;;;;;;19.43;42.07;101693.38;4944229;28;100181;-69
2023/04/18 08:58:31;;;;;;;;;;;;;;;19.46;42.29;101695.53;4945068;28;97856;-69
2023/04/18 09:00:57;;;;;;;;;;;;;;;19.38;42.59;101693.47;4960346;28;97971;-69
2023/04/18 09:03:40;;;;;;;;;;;;;;;19.34;42.69;101695.19;4940322;28;98156;-69
2023/04/18 09:06:17;;;;;;;;;;;;;;;19.47;42.56;101690.88;4928992;28;98331;-69
2023/04/18 09:08:53;;;;;;;;;;;;;;;19.66;42.32;101690.88;4939156;28;99032;-69
2023/04/18 09:11:28;;;;;;;;;;;;;;;19.80;42.19;101695.25;4926261;28;102215;-69
2023/04/18 09:13:57;;;;;;;;;;;;;;;19.80;42.44;101695.25;4921547;28;98260;-69
2023/04/18 09:16:24;;;;;;;;;;;;;;;19.94;42.25;101694.50;4919823;28;100306;-69
2023/04/18 09:19:16;;;;;;;;;;;;;;;20.09;42.11;101686.81;4933420;28;98301;-69
2023/04/18 09:21:47;;;;;;;;;;;;;;;20.41;41.86;101689.78;4939074;28;98003;-69
2023/04/18 09:24:22;;;;;;;;;;;;;;;20.16;42.25;101700.13;4937887;28;99511;-69
2023/04/18 09:26:49;;;;;;;;;;;;;;;20.08;42.46;101706.25;4936128;28;98356;-69
2023/04/18 09:29:17;;;;;;;;;;;;;;;20.08;42.54;101700.78;4941673;28;98246;-69
2023/04/18 09:32:22;;;;;;;;;;;;;;;20.02;42.68;101696.53;4951891;28;98177;-69
2023/04/18 09:34:50;;;;;;;;;;;;;;;19.87;42.89;101697.63;4932524;28;98576;-69
2023/04/18 09:37:16;;;;;;;;;;;;;;;19.83;42.81;101696.59;4956082;28;97985;-70
2023/04/18 09:39:43;;;;;;;;;;;;;;;19.78;43.02;101696.69;4937011;28;98216;-69
2023/04/18 09:42:09;;;;;;;;;;;;;;;19.72;42.91;101697.88;4942018;28;98001;-70
2023/04/18 09:44:36;;;;;;;;;;;;;;;19.69;42.94;101696.56;4921389;28;98311;-69
2023/04/18 09:47:04;;;;;;;;;;;;;;;19.68;43.08;101702.31;4944104;28;97993;-69
2023/04/18 09:49:31;;;;;;;;;;;;;;;19.64;42.98;101706.75;4925008;28;97890;-69
2023/04/18 09:51:57;;;;;;;;;;;;;;;19.61;43.04;101703.53;4938915;28;98057;-69
2023/04/18 09:54:24;;;;;;;;;;;;;;;19.55;43.04;101699.22;4925465;28;98417;-69
2023/04/18 09:56:52;;;;;;;;;;;;;;;19.51;43.20;101705.56;4943115;28;97849;-69
2023/04/18 09:59:46;;;;;;;;;;;;;;;19.55;43.13;101695.66;4938132;28;98096;-70
2023/04/18 10:02:15;;;;;;;;;;;;;;;19.70;42.86;101700.09;4923394;28;99203;-69
2023/04/18 10:04:41;;;;;;;;;;;;;;;19.71;42.81;101704.47;4937622;28;98262;-69
2023/04/18 10:07:07;;;;;;;;;;;;;;;19.68;42.92;101703.13;4943266;28;97946;-69
2023/04/18 10:09:35;;;;;;;;;;;;;;;19.62;43.07;101696.13;4951674;28;97952;-69
2023/04/18 10:12:01;;;;;;;;;;;;;;;19.60;43.07;101696.38;4945064;28;100390;-69
2023/04/18 10:14:28;;;;;;;;;;;;;;;19.64;43.11;101693.09;4937701;28;98003;-69
2023/04/18 10:16:54;;;;;;;;;;;;;;;19.63;43.11;101695.00;4925223;28;100225;-69
2023/04/18 10:19:25;;;;;;;;;;;;;;;19.59;43.22;101699.44;4941943;28;98373;-70
2023/04/18 10:21:55;;;;;;;;;;;;;;;19.64;43.00;101691.16;4940836;28;98454;-69
2023/04/18 10:24:54;;;;;;;;;;;;;;;19.59;43.09;101702.16;4953639;28;98196;-69
2023/04/18 10:27:52;;;;;;;;;;;;;;;19.48;43.34;101697.97;4948398;28;98459;-69
2023/04/18 10:30:18;;;;;;;;;;;;;;;19.41;43.24;101697.53;4950861;28;100231;-69
2023/04/18 10:32:48;;;;;;;;;;;;;;;19.37;43.44;101697.31;4925061;28;98724;-70
2023/04/18 10:35:14;;;;;;;;;;;;;;;19.28;43.58;101701.81;4954279;28;98423;-69
2023/04/18 10:37:50;;;;;;;;;;;;;;;19.18;43.42;101691.03;4938020;28;98251;-69
2023/04/18 10:40:30;;;;;;;;;;;;;;;19.12;43.54;101695.78;4919039;28;99128;-69
2023/04/18 10:42:56;;;;;;;;;;;;;;;19.02;43.54;101693.16;4939853;28;99155;-69
2023/04/18 10:45:23;;;;;;;;;;;;;;;18.94;43.63;101691.91;4933325;28;98283;-69
2023/04/18 10:47:49;;;;;;;;;;;;;;;18.87;43.85;101694.22;4951655;28;98154;-69
2023/04/18 10:50:16;;;;;;;;;;;;;;;18.80;43.66;101694.56;4922467;28;98122;-69
2023/04/18 10:52:42;;;;;;;;;;;;;;;18.73;43.56;101691.38;4954298;28;97885;-69
2023/04/18 10:55:15;;;;;;;;;;;;;;;18.70;43.81;101694.69;4952035;28;97967;-69
2023/04/18 10:57:46;;;;;;;;;;;;;;;18.69;43.66;101690.28;4948874;28;98040;-69
2023/04/18 11:00:14;;;;;;;;;;;;;;;18.69;43.71;101687.56;4940602;28;101005;-69
2023/04/18 11:02:51;;;;;;;;;;;;;;;18.66;43.58;101688.16;4906956;28;116889;-69
2023/04/18 11:05:27;;;;;;;;;;;;;;;18.67;43.58;101687.06;4949083;28;98840;-69
2023/04/18 11:07:54;;;;;;;;;;;;;;;18.69;43.53;101681.31;4925741;28;97850;-69
2023/04/18 11:10:25;;;;;;;;;;;;;;;18.70;43.63;101686.50;4939445;28;98191;-69
2023/04/18 11:12:51;;;;;;;;;;;;;;;18.78;43.40;101687.75;4937570;28;97964;-69
2023/04/18 11:15:25;;;;;;;;;;;;;;;18.88;43.40;101677.50;4933758;28;98109;-69
2023/04/18 11:18:01;;;;;;;;;;;;;;;18.89;43.44;101681.06;4941446;28;98087;-69
2023/04/18 11:20:28;;;;;;;;;;;;;;;18.83;43.25;101677.59;4920652;28;98070;-69
2023/04/18 11:22:55;;;;;;;;;;;;;;;18.80;43.25;101683.63;4935814;28;97971;-69
2023/04/18 11:25:33;;;;;;;;;;;;;;;18.73;43.74;101679.63;4936711;28;98223;-69
2023/04/18 11:27:59;;;;;;;;;;;;;;;18.70;43.52;101681.03;4921762;28;98186;-69
2023/04/18 11:30:27;;;;;;;;;;;;;;;18.61;43.82;101675.38;4921186;28;99813;-69
2023/04/18 11:32:54;;;;;;;;;;;;;;;18.56;43.67;101683.63;4940123;28;98452;-69
2023/04/18 11:35:21;;;;;;;;;;;;;;;18.51;43.88;101686.44;4923768;28;98655;-69
2023/04/18 11:37:49;;;;;;;;;;;;;;;18.44;43.71;101677.78;4933295;28;98041;-69
2023/04/18 11:40:15;;;;;;;;;;;;;;;18.38;44.02;101682.47;4925168;28;97981;-69
2023/04/18 11:42:41;;;;;;;;;;;;;;;18.34;43.87;101677.88;4940995;28;97966;-69
2023/04/18 11:45:14;;;;;;;;;;;;;;;18.28;43.96;101687.25;4923490;28;98255;-69
2023/04/18 11:47:41;;;;;;;;;;;;;;;18.20;43.93;101685.16;4957111;28;101539;-69
2023/04/18 11:50:09;;;;;;;;;;;;;;;18.14;43.95;101689.84;4918700;28;98221;-69
2023/04/18 11:52:35;;;;;;;;;;;;;;;18.10;44.12;101689.59;4930560;28;100317;-69
2023/04/18 11:55:20;;;;;;;;;;;;;;;18.04;44.12;101688.03;4916815;28;98188;-69
2023/04/18 11:57:56;;;;;;;;;;;;;;;18.02;44.15;101692.16;4942566;28;98167;-70
2023/04/18 12:00:36;;;;;;;;;;;;;;;18.05;44.04;101695.13;4917681;28;99716;-69
2023/04/18 12:03:03;;;;;;;;;;;;;;;18.05;44.00;101697.84;4965393;28;99916;-69
2023/04/18 12:05:31;;;;;;;;;;;;;;;18.08;44.04;101696.47;4941840;27;98205;-69
2023/04/18 12:08:10;;;;;;;;;;;;;;;18.10;43.88;101702.44;4945168;28;98232;-69
2023/04/18 12:10:37;;;;;;;;;;;;;;;18.11;44.18;101698.59;4923832;28;98118;-70
2023/04/18 12:13:07;;;;;;;;;;;;;;;18.13;43.93;101699.94;4924549;28;100037;-70
2023/04/18 12:15:37;;;;;;;;;;;;;;;18.14;44.06;101711.66;4921902;28;98038;-69
2023/04/18 12:18:04;;;;;;;;;;;;;;;18.13;44.03;101704.59;4923392;28;98181;-70
2023/04/18 12:20:37;;;;;;;;;;;;;;;18.12;44.15;101701.06;4944342;28;98255;-70
2023/04/18 12:23:04;;;;;;;;;;;;;;;18.11;44.00;101706.78;4939400;28;98087;-70
2023/04/18 12:25:31;;;;;;;;;;;;;;;18.10;44.21;101713.34;4936366;28;98101;-69
2023/04/18 12:28:18;;;;;;;;;;;;;;;18.09;44.02;101709.00;4928570;28;98423;-69
2023/04/18 12:30:44;;;;;;;;;;;;;;;18.06;44.18;101709.56;4943051;28;98182;-69
2023/04/18 12:33:11;;;;;;;;;;;;;;;18.05;44.11;101716.13;4942027;28;97968;-69
2023/04/18 12:35:38;;;;;;;;;;;;;;;18.03;44.34;101710.94;4922695;28;99836;-69
2023/04/18 12:38:04;;;;;;;;;;;;;;;18.01;44.21;101710.44;4944537;28;98158;-70